Observations for REGGIO CALABRIA AFB, Italy (LICR)

LICR 092250Z VRB08G18KT 9999 FEW040 18/09 Q1014 RESHRA  
LICR 092150Z 34009G20KT 290V040 9999 FEW040 18/10 Q1015 RESHRA  
LICR 092050Z 01009KT 340V050 9999 FEW040 17/11 Q1015 RESHRA 
LICR 091950Z 33010KT 290V020 9999 FEW040 18/11 Q1016 RESHRA 
LICR 091850Z 36013KT 9999 FEW040 18/10 Q1016 RESHRA 
LICR 091750Z 01010KT 340V050 9999 FEW040 17/11 Q1016 RESHRA 
LICR 091650Z 36011KT 9999 FEW040 17/09 Q1015 RESHRA 
LICR 091550Z 35016KT 9999 FEW040 16/08 Q1015 RESHRA 
LICR 091450Z 33013KT 9999 SCT040 17/09 Q1015 RESHRA 
LICR 091350Z 36013KT 9999 SCT030 16/11 Q1015 RESHRA 
LICR 091250Z 33011KT 9999 SCT030 16/09 Q1016 RESHRA 
LICR 091150Z 35012KT 9999 FEW030 18/08 Q1017 RESHRA 
LICR 091050Z 33012KT 290V350 9999 FEW050 18/08 Q1018 RESHRA 
LICR 090950Z 35012KT 9999 FEW050 18/08 Q1018 RESHRA 
LICR 090850Z 35015KT 9999 FEW050 18/07 Q1018 RESHRA 
LICR 090750Z 34014KT 9999 FEW050 17/07 Q1018 RESHRA 
LICR 090650Z 34015KT 9999 FEW050 16/06 Q1018 RESHRA 
LICR 090550Z 34016KT 9999 FEW050 16/07 Q1017 RESHRA 
LICR 090450Z 33013KT 9999 FEW050 16/07 Q1017 RESHRA